createdAt,value
2023-05-10T00:04:45.689Z,11.48
2023-05-10T00:09:56.067Z,11.95
2023-05-10T00:14:59.432Z,9.57
2023-05-10T00:20:05.289Z,9.45
2023-05-10T00:25:05.843Z,8.75
2023-05-10T00:30:17.441Z,9.65
2023-05-10T00:35:21.391Z,10.60
2023-05-10T00:40:21.428Z,12.25
2023-05-10T00:45:25.453Z,12.43
2023-05-10T00:51:18.514Z,12.48
2023-05-10T00:56:20.988Z,10.75
2023-05-10T01:01:38.308Z,10.50
2023-05-10T01:06:53.753Z,11.75
2023-05-10T01:12:09.480Z,9.45
2023-05-10T01:17:14.881Z,9.77
2023-05-10T01:22:30.321Z,9.50
2023-05-10T01:27:57.793Z,8.37
2023-05-10T01:33:11.151Z,8.52
2023-05-10T01:38:23.200Z,7.78
2023-05-10T01:43:29.805Z,8.50
2023-05-10T01:48:33.251Z,7.78
2023-05-10T01:53:42.668Z,8.65
2023-05-10T01:58:54.611Z,8.48
2023-05-10T02:04:05.425Z,9.38
2023-05-10T02:14:48.110Z,8.20
2023-05-10T02:19:51.044Z,9.23
2023-05-10T02:25:01.424Z,11.27
2023-05-10T02:30:09.251Z,12.07
2023-05-10T02:35:16.031Z,16.35
2023-05-10T02:40:30.090Z,11.50
2023-05-10T02:45:33.599Z,12.93
2023-05-10T02:50:39.570Z,12.73
2023-05-10T02:56:02.910Z,10.50
2023-05-10T03:01:21.773Z,8.85
2023-05-10T03:06:23.204Z,8.10
2023-05-10T03:11:48.746Z,9.35
2023-05-10T03:16:56.457Z,10.17
2023-05-10T03:22:13.735Z,8.48
2023-05-10T03:33:20.511Z,8.85
2023-05-10T03:38:32.876Z,8.93
2023-05-10T03:43:56.063Z,8.57
2023-05-10T03:49:34.921Z,8.13
2023-05-10T03:54:57.571Z,8.13
2023-05-10T04:05:33.480Z,8.40
2023-05-10T04:11:08.463Z,10.40
2023-05-10T04:16:21.150Z,9.27
2023-05-10T04:21:27.964Z,8.25
2023-05-10T04:26:31.566Z,9.45
2023-05-10T04:31:39.314Z,9.68
2023-05-10T04:36:40.955Z,9.45
2023-05-10T04:41:53.302Z,11.23
2023-05-10T04:46:55.962Z,12.32
2023-05-10T04:51:59.509Z,9.15
2023-05-10T04:57:07.615Z,14.32
2023-05-10T05:02:17.042Z,20.23
2023-05-10T05:07:29.787Z,18.70
2023-05-10T05:12:28.534Z,17.83
2023-05-10T05:17:38.737Z,18.73
2023-05-10T05:23:49.899Z,17.17
2023-05-10T05:29:09.886Z,17.95
2023-05-10T05:34:48.528Z,16.90
2023-05-10T05:42:15.702Z,17.70
2023-05-10T05:47:55.942Z,19.38
2023-05-10T06:00:28.990Z,18.15
2023-05-10T06:11:53.505Z,11.23
2023-05-10T06:17:13.910Z,13.93
2023-05-10T06:28:23.653Z,14.15
2023-05-10T06:33:31.985Z,11.68
2023-05-10T06:44:10.139Z,10.90
2023-05-10T06:49:52.256Z,12.65
2023-05-10T06:55:00.699Z,11.63
2023-05-10T07:00:00.653Z,13.02
2023-05-10T07:05:15.809Z,9.02
2023-05-10T07:10:19.799Z,9.70
2023-05-10T07:15:22.128Z,9.77
2023-05-10T07:20:30.050Z,11.48
2023-05-10T07:25:42.476Z,9.00
2023-05-10T07:30:44.180Z,11.25
2023-05-10T07:42:05.491Z,8.10
2023-05-10T07:48:23.563Z,7.28
2023-05-10T07:53:49.539Z,6.72
2023-05-10T07:59:48.443Z,6.53
2023-05-10T08:05:41.309Z,6.43
2023-05-10T08:11:14.442Z,6.45
2023-05-10T08:23:18.574Z,5.50
2023-05-10T08:28:51.592Z,4.82
2023-05-10T08:33:58.792Z,4.25
2023-05-10T08:39:04.125Z,3.13
2023-05-10T08:44:26.158Z,2.13
2023-05-10T08:50:21.227Z,2.38
2023-05-10T08:55:48.424Z,2.50
2023-05-10T09:01:40.864Z,2.40
2023-05-10T09:09:59.904Z,2.22
2023-05-10T09:13:08.235Z,1.90
2023-05-10T09:18:51.199Z,2.42
2023-05-10T09:24:37.323Z,1.73
2023-05-10T09:30:40.492Z,1.90
2023-05-10T09:37:37.428Z,1.83
2023-05-10T09:43:16.601Z,2.22
2023-05-10T09:48:35.242Z,2.35
2023-05-10T09:54:28.315Z,2.88
2023-05-10T10:00:08.329Z,2.22
2023-05-10T10:05:17.016Z,2.58
2023-05-10T10:11:06.353Z,2.87
2023-05-10T10:28:26.850Z,2.45
2023-05-10T10:34:05.898Z,1.58
2023-05-10T10:39:26.318Z,2.13
2023-05-10T10:45:00.167Z,2.70
2023-05-10T10:50:29.128Z,1.67
2023-05-10T10:56:13.432Z,2.30
2023-05-10T11:01:20.837Z,2.20
2023-05-10T11:06:43.511Z,1.85
2023-05-10T11:12:39.837Z,2.47
2023-05-10T11:18:14.087Z,2.25
2023-05-10T11:23:54.302Z,1.98
2023-05-10T11:28:59.883Z,2.10
2023-05-10T11:34:22.213Z,2.25
2023-05-10T11:39:27.950Z,1.92
2023-05-10T11:44:44.995Z,1.73
2023-05-10T11:49:52.904Z,1.90
2023-05-10T11:55:03.146Z,2.00
2023-05-10T12:00:08.910Z,2.25
2023-05-10T12:05:21.425Z,2.95
2023-05-10T12:10:28.877Z,2.35
2023-05-10T12:15:28.463Z,2.35
2023-05-10T12:20:34.908Z,2.35
2023-05-10T12:25:42.464Z,2.30
2023-05-10T12:30:43.818Z,2.25
2023-05-10T12:35:55.450Z,2.08
2023-05-10T12:40:56.811Z,2.33
2023-05-10T12:46:10.029Z,1.75
2023-05-10T12:51:10.181Z,1.75
2023-05-10T12:56:10.482Z,2.00
2023-05-10T13:06:40.166Z,1.67
2023-05-10T13:12:01.296Z,2.00
2023-05-10T13:17:06.294Z,2.53
2023-05-10T13:27:09.688Z,2.00
2023-05-10T13:32:11.596Z,2.22
2023-05-10T13:37:21.969Z,2.00
2023-05-10T13:42:21.282Z,2.40
2023-05-10T13:47:24.553Z,1.75
2023-05-10T13:52:42.880Z,2.00
2023-05-10T13:58:03.698Z,1.95
2023-05-10T14:03:11.565Z,2.50
2023-05-10T14:08:15.283Z,2.40
2023-05-10T14:13:14.242Z,3.33
2023-05-10T14:18:15.633Z,2.70
2023-05-10T14:23:22.583Z,2.70
2023-05-10T14:28:23.398Z,3.45
2023-05-10T14:39:50.299Z,1.75
2023-05-10T14:45:01.430Z,2.17
2023-05-10T14:55:28.803Z,1.73
2023-05-10T15:00:46.994Z,2.42
2023-05-10T15:06:00.927Z,2.25
2023-05-10T15:11:08.489Z,2.53
2023-05-10T15:16:27.718Z,2.47
2023-05-10T15:22:15.928Z,2.00
2023-05-10T15:34:43.423Z,2.38
2023-05-10T15:40:29.152Z,2.22
2023-05-10T15:54:05.814Z,1.98
2023-05-10T16:00:18.137Z,2.97
2023-05-10T16:06:32.818Z,2.55
2023-05-10T16:12:24.376Z,3.15
2023-05-10T16:18:33.725Z,3.38
2023-05-10T16:50:13.102Z,5.47
2023-05-10T17:16:14.606Z,3.95
2023-05-10T17:27:47.811Z,3.83
2023-05-10T17:33:20.517Z,3.60
2023-05-10T17:38:42.981Z,5.10
2023-05-10T17:51:24.142Z,4.47
2023-05-10T18:04:32.235Z,3.80
2023-05-10T18:10:11.189Z,6.05
2023-05-10T18:16:00.987Z,4.68
2023-05-10T18:21:47.479Z,3.70
2023-05-10T18:35:14.612Z,6.57
2023-05-10T18:53:03.307Z,4.32
2023-05-10T18:58:24.135Z,4.25
2023-05-10T19:03:31.121Z,4.88
2023-05-10T19:08:38.704Z,4.65
2023-05-10T19:13:54.918Z,4.05
2023-05-10T19:19:19.960Z,4.10
2023-05-10T19:24:52.292Z,3.40
2023-05-10T19:29:51.167Z,3.30
2023-05-10T19:35:34.831Z,3.72
2023-05-10T19:47:21.453Z,2.72
2023-05-10T19:52:30.934Z,3.15
2023-05-10T19:57:52.870Z,3.70
2023-05-10T20:08:36.542Z,2.70
2023-05-10T20:14:02.299Z,3.35
2023-05-10T20:19:10.623Z,2.80
2023-05-10T20:24:18.749Z,3.72
2023-05-10T20:29:23.687Z,3.78
2023-05-10T20:34:29.168Z,2.53
2023-05-10T20:39:46.386Z,3.10
2023-05-10T20:44:55.635Z,2.30
2023-05-10T20:50:11.461Z,3.58
2023-05-10T20:55:22.651Z,2.45
2023-05-10T21:00:49.516Z,2.42
2023-05-10T21:06:15.607Z,2.72
2023-05-10T21:11:22.756Z,3.17
2023-05-10T21:16:29.819Z,2.67
2023-05-10T21:21:40.991Z,2.50
2023-05-10T21:26:47.121Z,3.30
2023-05-10T21:31:59.480Z,3.40
2023-05-10T21:36:58.934Z,2.55
2023-05-10T21:42:07.370Z,2.75
2023-05-10T21:47:05.086Z,3.85
2023-05-10T21:52:07.946Z,2.95
2023-05-10T21:57:10.802Z,3.38
2023-05-10T22:02:15.401Z,3.08
2023-05-10T22:07:16.488Z,3.13
2023-05-10T22:12:29.051Z,3.45
2023-05-10T22:17:31.089Z,3.70
2023-05-10T22:22:33.830Z,3.00
2023-05-10T22:28:11.537Z,3.72
2023-05-10T22:33:23.156Z,3.25
2023-05-10T22:38:27.900Z,3.00
2023-05-10T22:43:25.993Z,3.50
2023-05-10T22:48:25.710Z,2.75
2023-05-10T22:53:28.295Z,3.60
2023-05-10T22:58:30.254Z,2.78
2023-05-10T23:03:31.580Z,3.20
2023-05-10T23:08:32.585Z,4.30
2023-05-10T23:13:41.468Z,4.50
2023-05-10T23:18:42.766Z,4.65
2023-05-10T23:23:44.935Z,5.05
2023-05-10T23:28:59.286Z,3.83
2023-05-10T23:34:00.661Z,4.30
2023-05-10T23:39:08.019Z,5.65
2023-05-10T23:44:06.432Z,4.10
2023-05-10T23:49:21.419Z,4.72
2023-05-10T23:54:21.093Z,4.30
2023-05-10T23:59:31.837Z,3.42
